Time;durP1;ratioP1;P1;durP2;ratioP2;P2;SDS_P1;SDS_P2;PMS_P1;PMS_P2;Temp;Humidity;BMP_temperature;BMP_pressure;BME280_temperature;BME280_humidity;BME280_pressure;Samples;Min_cycle;Max_cycle;Signal;HPM_P1;HPM_P2
2024/01/25 00:00:24;;;;;;;16.73;2.95;;;;;;;5.44;100.00;102547.75;5015733;28;20057;-77
2024/01/25 00:03:10;;;;;;;16.15;2.90;;;;;;;5.40;100.00;102553.88;5015238;28;20085;-76
2024/01/25 00:06:00;;;;;;;23.15;3.03;;;;;;;5.35;100.00;102555.59;5032577;28;20037;-76
2024/01/25 00:08:45;;;;;;;20.83;3.15;;;;;;;5.32;100.00;102552.97;5019468;28;20037;-75
2024/01/25 00:11:31;;;;;;;21.95;3.35;;;;;;;5.27;100.00;102543.31;5019278;28;20858;-76
2024/01/25 00:14:17;;;;;;;17.38;3.00;;;;;;;5.25;100.00;102542.44;5004290;28;20045;-75
2024/01/25 00:17:03;;;;;;;24.95;2.97;;;;;;;5.23;100.00;102540.69;5022136;28;20052;-76
2024/01/25 00:19:49;;;;;;;20.05;2.70;;;;;;;5.21;100.00;102553.81;5019230;28;20033;-76
2024/01/25 00:22:35;;;;;;;17.25;3.00;;;;;;;5.20;100.00;102541.53;5021380;28;21050;-76
2024/01/25 00:25:21;;;;;;;21.95;3.25;;;;;;;5.19;100.00;102544.16;5018892;28;20455;-75
2024/01/25 00:28:06;;;;;;;14.93;2.42;;;;;;;5.18;100.00;102543.28;5019401;28;21729;-76
2024/01/25 00:30:52;;;;;;;17.98;3.17;;;;;;;5.20;100.00;102548.53;5015550;28;20037;-76
2024/01/25 00:33:38;;;;;;;19.98;2.80;;;;;;;5.20;100.00;102533.66;5018042;28;20503;-76
2024/01/25 00:36:25;;;;;;;23.45;2.83;;;;;;;5.19;100.00;102539.78;5019952;28;20039;-75
2024/01/25 00:39:11;;;;;;;22.25;3.20;;;;;;;5.19;100.00;102538.91;5019325;28;20042;-76
2024/01/25 00:42:07;;;;;;;17.17;3.92;;;;;;;5.17;100.00;102541.50;5016577;28;20092;-75
2024/01/25 00:44:53;;;;;;;21.88;3.55;;;;;;;5.14;100.00;102555.50;5016319;28;20050;-75
2024/01/25 00:47:39;;;;;;;18.35;3.28;;;;;;;5.13;100.00;102550.28;5018111;28;20038;-75
2024/01/25 00:50:26;;;;;;;18.80;2.50;;;;;;;5.11;100.00;102549.34;4999328;28;20091;-75
2024/01/25 00:53:12;;;;;;;22.08;3.55;;;;;;;5.08;100.00;102541.47;5013876;28;20044;-76
2024/01/25 00:55:58;;;;;;;18.95;3.60;;;;;;;5.06;100.00;102551.09;5013961;28;20049;-76
2024/01/25 00:58:47;;;;;;;15.77;2.88;;;;;;;5.04;100.00;102556.34;5015792;28;20041;-76
2024/01/25 01:01:33;;;;;;;14.27;2.70;;;;;;;5.02;100.00;102561.56;5013190;28;20053;-76
2024/01/25 01:04:19;;;;;;;17.42;2.80;;;;;;;5.00;100.00;102559.81;5002270;28;20025;-75
2024/01/25 01:07:05;;;;;;;17.83;3.38;;;;;;;5.01;100.00;102557.19;5016019;28;20064;-76
2024/01/25 01:09:51;;;;;;;14.85;2.78;;;;;;;4.99;100.00;102553.69;5019607;28;20096;-76
2024/01/25 01:12:37;;;;;;;18.20;3.13;;;;;;;4.97;100.00;102558.03;5017419;28;20036;-76
2024/01/25 01:15:25;;;;;;;19.95;2.95;;;;;;;4.94;100.00;102555.41;5018511;28;20093;-75
2024/01/25 01:18:11;;;;;;;19.00;3.00;;;;;;;4.93;100.00;102569.41;5016196;28;20038;-75
2024/01/25 01:20:57;;;;;;;14.13;3.22;;;;;;;4.91;100.00;102591.25;5033553;28;20075;-75
2024/01/25 01:23:43;;;;;;;22.42;3.53;;;;;;;4.89;100.00;102588.63;5021710;28;20107;-76
2024/01/25 01:26:31;;;;;;;15.82;3.33;;;;;;;4.86;100.00;102586.00;5020883;28;20030;-76
2024/01/25 01:29:18;;;;;;;19.42;3.30;;;;;;;4.86;100.00;102591.25;5019561;28;20125;-76
2024/01/25 01:32:07;;;;;;;21.30;3.03;;;;;;;4.86;100.00;102601.75;5020333;28;20103;-75
2024/01/25 01:34:52;;;;;;;17.63;2.90;;;;;;;4.84;100.00;102612.22;5020869;28;20097;-75
2024/01/25 01:37:38;;;;;;;21.63;3.08;;;;;;;4.82;100.00;102610.44;5023369;28;20033;-74
2024/01/25 01:40:24;;;;;;;17.30;3.00;;;;;;;4.78;100.00;102622.66;5021517;28;20045;-74
2024/01/25 01:43:17;;;;;;;21.10;3.17;;;;;;;4.74;100.00;102621.78;5020033;28;20061;-75
2024/01/25 01:46:21;;;;;;;;;;;;;;;4.72;100.00;102622.63;5020930;28;20048;-74
2024/01/25 01:49:08;;;;;;;15.20;3.08;;;;;;;4.68;100.00;102613.84;5019888;28;19925;-74
2024/01/25 01:51:55;;;;;;;20.35;3.13;;;;;;;4.70;100.00;102617.38;5023742;28;20048;-75
2024/01/25 01:54:41;;;;;;;19.42;3.45;;;;;;;4.69;100.00;102614.75;5036421;28;20310;-74
2024/01/25 01:57:27;;;;;;;11.52;3.00;;;;;;;4.70;100.00;102616.50;5020627;28;21875;-76
2024/01/25 02:00:16;;;;;;;20.05;3.05;;;;;;;4.68;100.00;102621.72;5021493;28;20063;-75
2024/01/25 02:03:02;;;;;;;13.10;2.70;;;;;;;4.63;100.00;102618.19;5004859;28;20053;-75
2024/01/25 02:05:48;;;;;;;22.08;3.22;;;;;;;4.64;100.00;102619.97;5016628;28;20037;-76
2024/01/25 02:08:33;;;;;;;23.75;3.03;;;;;;;4.64;100.00;102622.59;5020758;28;20041;-74
2024/01/25 02:11:20;;;;;;;15.80;2.92;;;;;;;4.64;100.00;102632.19;5020236;28;20053;-74
2024/01/25 02:14:11;;;;;;;20.92;3.00;;;;;;;4.64;100.00;102632.19;5018409;28;20029;-75
2024/01/25 02:17:00;;;;;;;16.85;2.83;;;;;;;4.62;100.00;102640.94;5019597;28;20037;-76
2024/01/25 02:19:46;;;;;;;18.80;3.25;;;;;;;4.63;100.00;102654.91;5016061;28;20034;-76
2024/01/25 02:22:32;;;;;;;25.63;3.03;;;;;;;4.63;100.00;102641.78;5019623;28;20056;-75
2024/01/25 02:25:18;;;;;;;23.83;3.35;;;;;;;4.64;100.00;102645.31;5020765;28;20104;-76
2024/01/25 02:28:04;;;;;;;14.65;3.08;;;;;;;4.64;100.00;102653.19;5016741;28;20435;-76
2024/01/25 02:30:53;;;;;;;25.00;3.28;;;;;;;4.61;100.00;102648.78;5017341;28;20033;-75
2024/01/25 02:33:41;;;;;;;14.70;2.50;;;;;;;4.57;100.00;102645.25;5016608;28;20961;-76
2024/01/25 02:36:26;;;;;;;19.27;3.25;;;;;;;4.55;100.00;102640.84;5017914;28;20559;-75
2024/01/25 02:39:16;;;;;;;21.33;3.08;;;;;;;4.53;100.00;102658.34;5017682;28;20061;-76
2024/01/25 02:42:04;;;;;;;12.23;2.78;;;;;;;4.50;100.00;102659.19;5010707;28;20065;-76
2024/01/25 02:44:50;;;;;;;22.67;3.38;;;;;;;4.51;100.00;102670.56;5002420;28;20042;-76
2024/01/25 02:47:36;;;;;;;20.75;3.03;;;;;;;4.47;100.00;102670.53;4989468;28;20033;-76
2024/01/25 02:50:22;;;;;;;18.90;3.85;;;;;;;4.47;100.00;102657.41;4986510;28;20030;-76
2024/01/25 02:53:07;;;;;;;20.70;3.53;;;;;;;4.48;100.00;102663.53;4987716;28;20045;-75
2024/01/25 02:55:53;;;;;;;17.48;3.17;;;;;;;4.46;100.00;102663.53;4990098;28;20050;-75
2024/01/25 02:58:39;;;;;;;18.08;3.25;;;;;;;4.48;100.00;102664.41;4986970;28;20040;-75
2024/01/25 03:01:25;;;;;;;17.35;2.83;;;;;;;4.45;100.00;102667.00;4987165;28;20037;-75
2024/01/25 03:04:11;;;;;;;23.13;2.83;;;;;;;4.44;100.00;102659.13;4976461;28;20500;-75
2024/01/25 03:06:56;;;;;;;22.42;3.90;;;;;;;4.41;100.00;102659.97;4973420;28;20045;-75
2024/01/25 03:09:42;;;;;;;15.52;3.45;;;;;;;4.40;100.00;102668.72;5001695;28;20069;-75
2024/01/25 03:12:34;;;;;;;17.55;2.85;;;;;;;4.38;100.00;102667.81;5001449;28;20555;-75
2024/01/25 03:15:20;;;;;;;26.67;3.80;;;;;;;4.34;100.00;102666.03;5002292;28;20184;-75
2024/01/25 03:18:06;;;;;;;18.27;3.22;;;;;;;4.32;100.00;102670.38;4998595;28;20046;-75
2024/01/25 03:20:52;;;;;;;16.42;2.80;;;;;;;4.30;100.00;102672.13;5003207;28;20131;-75
2024/01/25 03:23:38;;;;;;;19.58;3.22;;;;;;;4.26;100.00;102668.59;5000051;28;20041;-75
2024/01/25 03:26:29;;;;;;;21.65;3.05;;;;;;;4.23;100.00;102665.06;4973393;28;20048;-76
2024/01/25 03:29:14;;;;;;;17.73;2.90;;;;;;;4.22;100.00;102669.41;5000098;28;20030;-75
2024/01/25 03:32:02;;;;;;;25.38;3.13;;;;;;;4.20;100.00;102666.75;4998941;28;20038;-76
2024/01/25 03:34:48;;;;;;;19.85;2.92;;;;;;;4.17;100.00;102660.59;4987287;28;20198;-76
2024/01/25 03:37:34;;;;;;;13.40;2.65;;;;;;;4.15;100.00;102657.09;5001523;28;20046;-76
2024/01/25 03:40:20;;;;;;;15.43;2.78;;;;;;;4.13;100.00;102662.31;4997204;28;20052;-75
2024/01/25 03:43:06;;;;;;;15.57;2.58;;;;;;;4.14;100.00;102665.81;5006213;28;20068;-76
2024/01/25 03:45:51;;;;;;;15.30;2.70;;;;;;;4.10;100.00;102664.03;5016689;28;20045;-76
2024/01/25 03:48:37;;;;;;;17.85;3.03;;;;;;;4.11;100.00;102668.41;5016118;28;20141;-75
2024/01/25 03:51:26;;;;;;;19.10;3.00;;;;;;;4.12;100.00;102672.78;5019051;28;20099;-76
2024/01/25 03:54:12;;;;;;;14.73;3.30;;;;;;;4.11;100.00;102674.53;5017369;28;20029;-76
2024/01/25 03:56:58;;;;;;;21.23;3.38;;;;;;;4.08;100.00;102674.47;5021915;28;20059;-76
2024/01/25 03:59:44;;;;;;;20.27;3.08;;;;;;;4.08;100.00;102678.00;4994593;28;20045;-76
2024/01/25 04:02:32;;;;;;;20.17;4.18;;;;;;;4.04;100.00;102670.09;5019163;28;20053;-75
2024/01/25 04:05:18;;;;;;;18.17;2.90;;;;;;;4.06;100.00;102673.59;5017428;28;20151;-76
2024/01/25 04:08:04;;;;;;;20.20;3.55;;;;;;;4.03;100.00;102676.19;5016891;28;20460;-76
2024/01/25 04:10:49;;;;;;;21.98;2.90;;;;;;;4.04;100.00;102686.69;5014584;28;20045;-75
2024/01/25 04:13:35;;;;;;;28.98;4.45;;;;;;;4.06;100.00;102686.69;5017446;28;20029;-76
2024/01/25 04:16:22;;;;;;;18.40;3.15;;;;;;;4.05;100.00;102682.31;5014651;28;20056;-76
2024/01/25 04:19:12;;;;;;;21.58;3.85;;;;;;;4.04;100.00;102688.44;5014526;28;20560;-76
2024/01/25 04:21:57;;;;;;;25.48;3.53;;;;;;;4.02;100.00;102684.91;5015300;28;20508;-76
2024/01/25 04:24:43;;;;;;;27.60;3.22;;;;;;;4.01;100.00;102691.00;5017384;28;20048;-76
2024/01/25 04:27:29;;;;;;;22.13;3.88;;;;;;;3.98;100.00;102686.59;5017748;28;20408;-75
2024/01/25 04:30:15;;;;;;;14.40;2.97;;;;;;;3.96;100.00;102684.84;5020926;28;20041;-76
2024/01/25 04:33:02;;;;;;;16.08;2.65;;;;;;;3.93;100.00;102686.56;5016691;28;20033;-75
2024/01/25 04:35:48;;;;;;;18.58;3.03;;;;;;;3.91;100.00;102685.66;5015772;28;20027;-76
2024/01/25 04:38:36;;;;;;;16.90;2.90;;;;;;;3.86;100.00;102676.88;5018329;28;20046;-75
2024/01/25 04:41:21;;;;;;;22.88;3.40;;;;;;;3.85;100.00;102696.06;5019882;28;20079;-76
2024/01/25 04:44:07;;;;;;;20.88;3.28;;;;;;;3.82;100.00;102696.03;5003675;28;20045;-76
2024/01/25 04:46:54;;;;;;;19.55;3.65;;;;;;;3.80;100.00;102700.38;4985428;28;20705;-76
2024/01/25 04:49:40;;;;;;;23.92;4.10;;;;;;;3.76;100.00;102698.59;5002446;28;20034;-76
2024/01/25 04:52:26;;;;;;;19.52;3.78;;;;;;;3.73;100.00;102695.91;4986489;28;20038;-76
2024/01/25 04:55:15;;;;;;;19.92;3.88;;;;;;;3.70;100.00;102696.75;5004500;28;20042;-76
2024/01/25 04:58:00;;;;;;;22.42;3.00;;;;;;;3.66;100.00;102690.59;5004797;28;20045;-76
2024/01/25 05:00:46;;;;;;;19.98;4.13;;;;;;;3.65;100.00;102688.84;5002342;28;20061;-76
2024/01/25 05:03:32;;;;;;;19.30;3.55;;;;;;;3.65;100.00;102690.59;5004791;28;20153;-76
2024/01/25 05:06:18;;;;;;;21.65;3.50;;;;;;;3.66;100.00;102684.47;4989673;28;20604;-76
2024/01/25 05:09:03;;;;;;;19.90;3.72;;;;;;;3.63;100.00;102690.56;4988373;28;20041;-76
2024/01/25 05:11:49;;;;;;;23.05;3.30;;;;;;;3.63;100.00;102690.56;5002995;28;21994;-76
2024/01/25 05:14:38;;;;;;;27.60;3.60;;;;;;;3.65;100.00;102699.31;5005454;28;20037;-76
2024/01/25 05:17:27;;;;;;;26.30;3.78;;;;;;;3.65;100.00;102704.56;4989398;28;20097;-76
2024/01/25 05:20:17;;;;;;;19.05;3.60;;;;;;;3.63;100.00;102706.28;5003202;28;20488;-76
2024/01/25 05:23:04;;;;;;;21.13;3.47;;;;;;;3.63;100.00;102698.41;4990029;28;20048;-76
2024/01/25 05:25:49;;;;;;;26.58;3.50;;;;;;;3.64;100.00;102702.78;4990926;28;20042;-76
2024/01/25 05:28:35;;;;;;;18.75;3.30;;;;;;;3.61;100.00;102697.53;4988946;28;20780;-76
2024/01/25 05:31:21;;;;;;;17.30;2.72;;;;;;;3.61;100.00;102699.25;4988762;28;20038;-76
2024/01/25 05:34:06;;;;;;;21.80;4.05;;;;;;;3.59;100.00;102709.69;4987815;28;20049;-76
2024/01/25 05:36:52;;;;;;;19.70;3.90;;;;;;;3.59;100.00;102709.69;4989710;28;20142;-76
2024/01/25 05:39:38;;;;;;;19.25;4.00;;;;;;;3.58;100.00;102718.44;4990030;28;20477;-76
2024/01/25 05:42:24;;;;;;;20.52;3.20;;;;;;;3.57;100.00;102732.38;5007525;28;20087;-76
2024/01/25 05:45:10;;;;;;;21.83;3.15;;;;;;;3.53;100.00;102730.56;5020195;28;20765;-76
2024/01/25 05:47:56;;;;;;;24.27;3.28;;;;;;;3.48;100.00;102734.88;5019079;28;20056;-75
2024/01/25 05:50:41;;;;;;;16.95;3.58;;;;;;;3.45;100.00;102737.44;5018117;28;20037;-76
2024/01/25 05:53:27;;;;;;;18.08;2.78;;;;;;;3.40;100.00;102745.22;5020303;28;20073;-76
2024/01/25 05:56:13;;;;;;;23.60;3.72;;;;;;;3.38;100.00;102760.06;5017572;28;20041;-76
2024/01/25 05:58:58;;;;;;;18.17;3.00;;;;;;;3.35;100.00;102763.50;5022120;28;20034;-75
2024/01/25 06:01:44;;;;;;;19.17;3.35;;;;;;;3.32;100.00;102763.44;5020516;28;20495;-76
2024/01/25 06:04:30;;;;;;;16.58;2.75;;;;;;;3.29;100.00;102771.25;5018123;28;20168;-76
2024/01/25 06:07:16;;;;;;;13.57;3.00;;;;;;;3.25;100.00;102769.44;5015944;28;20038;-75
2024/01/25 06:10:04;;;;;;;25.77;3.60;;;;;;;3.26;100.00;102768.56;5024797;28;20045;-77
2024/01/25 06:12:50;;;;;;;26.38;3.58;;;;;;;3.24;100.00;102780.75;5019865;28;20674;-76
2024/01/25 06:15:36;;;;;;;13.35;3.15;;;;;;;3.21;100.00;102765.03;5016361;28;20042;-76
2024/01/25 06:18:22;;;;;;;19.13;3.67;;;;;;;3.21;100.00;102758.03;5020074;28;20044;-76
2024/01/25 06:21:07;;;;;;;17.67;2.75;;;;;;;3.17;100.00;102755.34;5018208;28;20048;-75
2024/01/25 06:23:56;;;;;;;18.90;3.33;;;;;;;3.11;100.00;102749.16;4990525;28;20776;-76
2024/01/25 06:26:42;;;;;;;21.80;3.22;;;;;;;3.10;100.00;102757.84;5227742;22;20124;-75
2024/01/25 06:29:28;;;;;;;22.95;3.67;;;;;;;3.08;100.00;102759.56;5085199;27;20046;-76
2024/01/25 06:32:16;;;;;;;17.63;3.33;;;;;;;3.07;100.00;102763.06;5084246;27;20051;-75
2024/01/25 06:35:04;;;;;;;16.48;3.25;;;;;;;3.07;100.00;102775.25;5084715;28;20038;-77
2024/01/25 06:37:50;;;;;;;22.13;3.47;;;;;;;3.05;100.00;102780.44;5070132;27;20040;-76
2024/01/25 06:40:36;;;;;;;18.48;3.00;;;;;;;3.01;100.00;102772.53;5099038;27;20038;-77
2024/01/25 06:43:22;;;;;;;16.60;2.67;;;;;;;2.97;100.00;102772.47;5099583;27;20035;-77
2024/01/25 06:46:26;;;;;;;14.70;3.03;;;;;;;2.94;100.00;102771.56;5100719;27;20035;-78
2024/01/25 06:49:16;;;;;;;17.85;3.15;;;;;;;2.90;100.00;102767.09;5062231;27;20043;-77
2024/01/25 06:52:01;;;;;;;17.35;3.67;;;;;;;2.87;100.00;102774.91;5099005;27;20406;-76
2024/01/25 06:54:47;;;;;;;23.98;4.63;;;;;;;2.82;100.00;102767.84;5098525;27;20125;-76
2024/01/25 06:57:38;;;;;;;17.67;4.07;;;;;;;2.79;100.00;102770.41;5082041;27;20036;-77
2024/01/25 07:00:24;;;;;;;18.50;4.32;;;;;;;2.76;100.00;102779.94;5074890;28;21583;-75
2024/01/25 07:03:10;;;;;;;27.02;4.47;;;;;;;2.72;100.00;102786.84;5076845;28;20044;-76
2024/01/25 07:05:55;;;;;;;13.73;3.17;;;;;;;2.69;100.00;102792.03;5071219;28;20105;-76
2024/01/25 07:08:41;;;;;;;22.88;3.67;;;;;;;2.65;100.00;102795.41;5071424;28;20127;-76
2024/01/25 07:11:27;;;;;;;18.30;4.25;;;;;;;2.63;100.00;102795.41;5103382;23;20059;-76
2024/01/25 07:16:48;;;;;;;17.70;3.83;;;;;;;2.60;100.00;102807.56;5333222;22;20067;-76
2024/01/25 07:19:34;;;;;;;16.05;4.13;;;;;;;2.55;100.00;102795.25;5069129;22;20048;-75
2024/01/25 07:22:22;;;;;;;18.63;3.75;;;;;;;2.56;100.00;102799.63;5454592;22;20030;-75
2024/01/25 07:27:46;;;;;;;23.90;4.03;;;;;;;2.53;100.00;102812.66;5124828;22;20549;-75
2024/01/25 07:30:32;;;;;;;30.95;4.38;;;;;;;2.52;100.00;102816.13;5045304;28;20033;-76
2024/01/25 07:33:18;;;;;;;18.85;3.83;;;;;;;2.50;100.00;102806.50;5044225;28;20045;-76
2024/01/25 07:36:04;;;;;;;20.00;3.45;;;;;;;2.49;100.00;102804.69;5053429;28;20119;-76
2024/01/25 07:38:56;;;;;;;21.42;4.32;;;;;;;2.48;100.00;102814.28;5072962;28;20040;-78
2024/01/25 07:41:42;;;;;;;20.30;3.17;;;;;;;2.50;100.00;102814.34;5132682;22;20048;-75
2024/01/25 07:44:37;;;;;;;15.45;3.35;;;;;;;2.53;100.00;102807.44;5084464;28;20044;-74
2024/01/25 07:47:22;;;;;;;23.98;4.28;;;;;;;2.57;100.00;102804.00;5053493;28;20697;-75
2024/01/25 07:50:08;;;;;;;19.02;3.85;;;;;;;2.60;100.00;102802.31;5082906;28;20460;-75
2024/01/25 07:52:54;;;;;;;19.30;4.13;;;;;;;2.60;100.00;102792.72;5067058;28;20114;-75
2024/01/25 07:55:40;;;;;;;17.90;3.08;;;;;;;2.63;100.00;102797.13;5055027;28;20096;-75
2024/01/25 07:58:26;;;;;;;20.10;3.47;;;;;;;2.67;100.00;102801.59;5041671;28;20023;-74
2024/01/25 08:01:15;;;;;;;22.30;3.78;;;;;;;2.70;100.00;102802.53;5052027;28;20043;-75
2024/01/25 08:04:00;;;;;;;19.00;3.13;;;;;;;2.71;100.00;102801.66;5024884;28;20041;-77
2024/01/25 08:06:46;;;;;;;23.25;3.45;;;;;;;2.72;100.00;102792.97;5041539;28;20071;-76
2024/01/25 08:09:32;;;;;;;22.08;4.30;;;;;;;2.75;100.00;102806.94;5038088;28;20041;-76
2024/01/25 08:12:24;;;;;;;16.33;3.65;;;;;;;2.73;100.00;102804.31;5052275;28;20087;-76
2024/01/25 08:15:10;;;;;;;16.25;3.45;;;;;;;2.78;100.00;102799.16;5053703;28;20071;-75
2024/01/25 08:17:56;;;;;;;18.05;3.63;;;;;;;2.81;100.00;102801.81;5029561;28;20490;-76
2024/01/25 08:20:42;;;;;;;16.63;3.47;;;;;;;2.84;100.00;102797.53;5052903;28;20036;-76
2024/01/25 08:23:28;;;;;;;20.02;3.38;;;;;;;2.87;100.00;102803.69;5053690;28;20058;-76
2024/01/25 08:26:14;;;;;;;15.25;3.70;;;;;;;2.87;100.00;102796.72;5037021;28;20061;-77
2024/01/25 08:29:01;;;;;;;16.35;2.75;;;;;;;2.89;100.00;102804.59;5039634;28;20105;-74
2024/01/25 08:31:51;;;;;;;15.40;3.40;;;;;;;2.90;100.00;102807.25;5040610;28;20037;-75
2024/01/25 08:34:37;;;;;;;26.27;3.30;;;;;;;2.91;100.00;102802.88;5039985;28;20404;-76
2024/01/25 08:37:23;;;;;;;25.48;4.53;;;;;;;2.91;100.00;102811.63;5038344;28;20028;-76
2024/01/25 08:40:09;;;;;;;26.45;3.95;;;;;;;2.91;100.00;102810.72;5023865;28;20032;-75
2024/01/25 08:42:55;;;;;;;17.50;3.25;;;;;;;2.93;100.00;102811.63;5054771;28;20041;-74
2024/01/25 08:45:41;;;;;;;20.45;3.55;;;;;;;2.95;100.00;102809.94;5055050;28;20032;-75
2024/01/25 08:48:26;;;;;;;14.48;3.17;;;;;;;2.94;100.00;102802.94;5039106;28;20043;-75
2024/01/25 08:51:15;;;;;;;22.17;3.80;;;;;;;2.94;100.00;102814.28;5056444;28;20037;-76
2024/01/25 08:54:04;;;;;;;18.27;3.78;;;;;;;2.98;100.00;102812.59;5056720;28;20033;-76
2024/01/25 08:56:50;;;;;;;16.10;3.35;;;;;;;3.01;100.00;102820.53;5055149;28;20058;-77
2024/01/25 08:59:37;;;;;;;19.45;3.28;;;;;;;3.02;100.00;102822.28;5045535;28;20167;-76
2024/01/25 09:02:26;;;;;;;22.10;3.65;;;;;;;3.05;100.00;102826.69;5053388;28;20037;-76
2024/01/25 09:05:12;;;;;;;21.00;4.70;;;;;;;3.10;100.00;102822.41;5032924;28;20044;-75
2024/01/25 09:07:58;;;;;;;17.45;3.75;;;;;;;3.12;100.00;102813.72;5054358;28;20044;-76
2024/01/25 09:10:44;;;;;;;19.05;3.65;;;;;;;3.18;100.00;102812.06;5044348;28;20475;-77
2024/01/25 09:13:32;;;;;;;18.40;3.50;;;;;;;3.22;100.00;102808.66;5037077;28;20041;-78
2024/01/25 09:16:18;;;;;;;15.38;3.47;;;;;;;3.26;100.00;102805.22;5050781;28;20037;-77
2024/01/25 09:19:04;;;;;;;22.55;3.75;;;;;;;3.30;100.00;102807.06;5038120;28;20063;-76
2024/01/25 09:21:50;;;;;;;22.88;4.47;;;;;;;3.33;100.00;102814.94;5028312;28;20111;-77
2024/01/25 09:24:36;;;;;;;15.82;3.65;;;;;;;3.36;100.00;102822.88;5023513;28;20033;-77
2024/01/25 09:27:25;;;;;;;16.23;3.45;;;;;;;3.40;100.00;102829.91;5038539;28;20118;-77
2024/01/25 09:30:11;;;;;;;25.23;4.15;;;;;;;3.43;100.00;102839.53;5053018;28;20045;-77
2024/01/25 09:32:57;;;;;;;17.52;3.58;;;;;;;3.46;100.00;102841.34;5051894;28;20090;-77
2024/01/25 09:35:46;;;;;;;24.35;4.00;;;;;;;3.48;100.00;102830.03;5025069;28;20572;-77
2024/01/25 09:38:32;;;;;;;22.63;4.18;;;;;;;3.52;100.00;102844.06;5024142;28;20040;-77
2024/01/25 09:41:18;;;;;;;22.52;3.78;;;;;;;3.56;100.00;102840.66;5049859;28;20053;-77
2024/01/25 09:44:03;;;;;;;20.23;3.60;;;;;;;3.59;100.00;102832.81;5054634;28;20106;-76
2024/01/25 09:46:53;;;;;;;23.83;4.20;;;;;;;3.64;100.00;102830.25;5051595;28;20600;-76
2024/01/25 09:49:39;;;;;;;20.40;4.10;;;;;;;3.70;100.00;102827.75;5026031;28;20029;-76
2024/01/25 09:52:27;;;;;;;19.92;3.20;;;;;;;3.75;100.00;102833.03;5023926;28;20032;-76
2024/01/25 09:55:14;;;;;;;19.63;4.10;;;;;;;3.82;100.00;102840.16;5039371;28;22095;-76
2024/01/25 09:58:00;;;;;;;18.63;3.47;;;;;;;3.84;100.00;102841.06;5039030;28;20190;-77
2024/01/25 10:00:45;;;;;;;19.80;3.85;;;;;;;3.88;100.00;102840.22;5026851;28;20044;-76
2024/01/25 10:03:31;;;;;;;23.13;4.13;;;;;;;3.90;100.00;102830.69;5055221;28;20613;-76
2024/01/25 10:06:17;;;;;;;28.95;4.05;;;;;;;3.94;100.00;102827.22;5036354;28;20705;-77
2024/01/25 10:09:04;;;;;;;20.15;4.10;;;;;;;3.98;100.00;102830.75;5038251;28;20056;-76
2024/01/25 10:11:50;;;;;;;26.92;3.83;;;;;;;4.01;100.00;102835.16;5049951;28;20741;-75
2024/01/25 10:14:36;;;;;;;30.77;4.55;;;;;;;4.02;100.00;102832.59;5037649;28;20033;-76
2024/01/25 10:17:21;;;;;;;24.17;4.22;;;;;;;4.03;100.00;102829.09;5041062;28;20056;-76
2024/01/25 10:20:11;;;;;;;15.35;3.88;;;;;;;4.07;100.00;102827.41;5052926;28;20044;-76
2024/01/25 10:23:03;;;;;;;16.20;3.35;;;;;;;4.10;100.00;102822.22;5031065;28;20172;-75
2024/01/25 10:25:49;;;;;;;20.15;3.67;;;;;;;4.14;100.00;102824.00;5037908;28;20166;-77
2024/01/25 10:28:37;;;;;;;18.80;4.20;;;;;;;4.19;100.00;102818.81;5054420;28;20094;-76
2024/01/25 10:31:30;;;;;;;24.50;3.20;;;;;;;4.27;100.00;102818.91;5027438;28;20028;-76
2024/01/25 10:34:16;;;;;;;19.55;3.97;;;;;;;4.32;100.00;102819.88;5054290;28;20163;-76
2024/01/25 10:37:09;;;;;;;18.83;3.88;;;;;;;4.43;100.00;102817.38;5040301;28;20033;-77
2024/01/25 10:39:55;;;;;;;12.93;3.50;;;;;;;4.52;100.00;102814.84;5051935;28;21280;-76
2024/01/25 10:42:41;;;;;;;20.30;4.70;;;;;;;4.62;100.00;102811.47;5010832;28;20441;-76
2024/01/25 10:45:27;;;;;;;22.30;3.90;;;;;;;4.70;100.00;102806.31;5012662;28;20040;-77
2024/01/25 10:48:13;;;;;;;19.52;3.75;;;;;;;4.78;100.00;102806.38;5011184;28;20070;-77
2024/01/25 10:51:02;;;;;;;25.83;3.85;;;;;;;4.86;100.00;102809.09;5000587;28;20294;-77
2024/01/25 10:53:48;;;;;;;22.65;3.72;;;;;;;4.93;100.00;102810.03;5009787;28;20064;-77
2024/01/25 10:56:38;;;;;;;22.77;4.03;;;;;;;4.97;100.00;102802.19;5011407;28;20638;-78
2024/01/25 10:59:25;;;;;;;24.48;4.25;;;;;;;5.03;100.00;102806.63;5012341;28;20050;-77
2024/01/25 11:02:11;;;;;;;19.65;4.07;;;;;;;5.06;100.00;102805.78;5014442;28;20174;-76
2024/01/25 11:04:59;;;;;;;20.00;4.53;;;;;;;5.08;100.00;102804.94;5009507;28;20037;-78
2024/01/25 11:07:46;;;;;;;22.92;3.80;;;;;;;5.11;100.00;102788.31;5027267;28;20052;-77
2024/01/25 11:10:35;;;;;;;18.10;3.85;;;;;;;5.14;100.00;102794.47;5017063;28;20478;-78
2024/01/25 11:13:26;;;;;;;16.70;4.20;;;;;;;5.15;100.00;102787.47;5017193;28;20117;-80
2024/01/25 11:16:17;;;;;;;21.98;3.67;;;;;;;5.16;100.00;102777.00;5003235;28;20044;-79
2024/01/25 11:19:05;;;;;;;18.27;3.55;;;;;;;5.18;100.00;102756.00;5008622;28;20049;-79
2024/01/25 11:21:53;;;;;;;24.88;4.47;;;;;;;5.23;100.00;102748.16;5013099;28;20717;-78
2024/01/25 11:24:39;;;;;;;17.13;3.85;;;;;;;5.28;100.00;102751.66;5010544;28;20069;-79
2024/01/25 11:27:25;;;;;;;19.05;4.20;;;;;;;5.30;100.00;102742.94;5007802;28;20026;-79
2024/01/25 11:30:13;;;;;;;18.23;3.45;;;;;;;5.33;100.00;102735.97;5005194;28;20037;-79
2024/01/25 11:32:59;;;;;;;15.57;3.20;;;;;;;5.35;100.00;102743.00;4991404;28;20087;-79
2024/01/25 11:35:57;;;;;;;15.05;3.60;;;;;;;5.36;100.00;102735.97;5008029;28;20208;-79
2024/01/25 11:38:45;;;;;;;13.38;3.53;;;;;;;5.38;100.00;102729.88;5012114;28;20041;-80
2024/01/25 11:41:31;;;;;;;16.92;3.25;;;;;;;5.42;100.00;102725.50;5029054;28;20041;-79
2024/01/25 11:44:17;;;;;;;18.05;3.88;;;;;;;5.46;100.00;102727.31;5030082;28;20151;-80
2024/01/25 11:47:03;;;;;;;15.75;3.95;;;;;;;5.48;100.00;102735.16;5032648;28;20061;-78
2024/01/25 11:49:48;;;;;;;21.67;5.28;;;;;;;5.51;100.00;102730.81;5036151;28;20040;-78
2024/01/25 11:52:35;;;;;;;19.75;4.90;;;;;;;5.52;100.00;102727.34;5033390;28;20033;-77
2024/01/25 11:55:21;;;;;;;27.27;4.32;;;;;;;5.52;100.00;102719.47;5027890;28;20025;-78
2024/01/25 11:58:07;;;;;;;15.38;3.45;;;;;;;5.57;100.00;102725.59;5030450;28;20041;-78
2024/01/25 12:00:52;;;;;;;23.30;4.10;;;;;;;5.60;100.00;102718.63;5030435;28;20048;-78
2024/01/25 12:03:39;;;;;;;15.68;3.53;;;;;;;5.59;100.00;102722.97;5020038;28;20034;-78
2024/01/25 12:06:25;;;;;;;12.85;4.05;;;;;;;5.58;100.00;102722.09;5029512;28;20049;-78
2024/01/25 12:09:12;;;;;;;18.10;4.13;;;;;;;5.57;100.00;102720.34;5030262;28;20483;-78
2024/01/25 12:12:00;;;;;;;21.15;4.20;;;;;;;5.57;100.00;102722.97;5028797;28;20037;-79
2024/01/25 12:14:54;;;;;;;24.13;4.88;;;;;;;5.61;100.00;102713.34;5044054;28;20092;-79
2024/01/25 12:17:40;;;;;;;15.02;4.10;;;;;;;5.67;100.00;102716.00;5029820;28;20506;-79
2024/01/25 12:20:26;;;;;;;18.17;4.63;;;;;;;5.70;100.00;102716.03;5029359;28;20029;-79
2024/01/25 12:23:14;;;;;;;20.85;4.28;;;;;;;5.76;100.00;102707.31;5031091;28;20317;-79
2024/01/25 12:26:04;;;;;;;16.08;3.38;;;;;;;5.79;100.00;102699.44;5036135;28;20500;-79
2024/01/25 12:28:50;;;;;;;20.52;3.90;;;;;;;5.82;100.00;102703.81;5030801;28;20033;-78
2024/01/25 12:31:36;;;;;;;25.48;4.38;;;;;;;5.81;100.00;102683.66;5034577;28;20496;-78
2024/01/25 12:34:22;;;;;;;11.70;3.25;;;;;;;5.85;100.00;102680.19;5035219;28;20052;-79
2024/01/25 12:37:10;;;;;;;12.35;3.63;;;;;;;5.86;100.00;102684.56;5037365;28;20036;-78
2024/01/25 12:39:56;;;;;;;18.58;4.35;;;;;;;5.85;100.00;102678.41;5044454;28;20098;-75
2024/01/25 12:42:41;;;;;;;21.02;3.80;;;;;;;5.82;100.00;102662.66;5054502;28;20060;-77
2024/01/25 12:45:30;;;;;;;17.35;3.55;;;;;;;5.81;100.00;102667.88;5054473;28;20983;-79
2024/01/25 12:48:17;;;;;;;19.08;4.25;;;;;;;5.79;100.00;102667.91;5052272;28;20507;-78
2024/01/25 12:51:03;;;;;;;18.13;4.47;;;;;;;5.77;100.00;102667.00;5037118;28;20033;-77